This is the latest recevied weather packets stored in our database for station/object KM5VY. If no packets are shown the sender has not sent any weather packets the latest 1 day(s).
| Time | Temp. | Humidity | Pressure | Rain* | Wind** | Luminosity | Snow |
|---|---|---|---|---|---|---|---|
| 1778094545 | 16.67° C | 38% | 1015.6 hPa | 0 mm | - | - | - |
| 1778085593 | 12.78° C | 50% | 1014.2 hPa | 0 mm | - | - | - |
| 1778076580 | 3.89° C | 70% | 1014.9 hPa | 0 mm | - | - | - |
| 1778075977 | 3.89° C | 71% | 1014.9 hPa | 0 mm | - | - | - |
| 1778071770 | 2.22° C | 73% | 1014.6 hPa | 0 mm | - | - | - |
| 1778071170 | 2.22° C | 73% | 1014.6 hPa | 0 mm | - | - | - |
| 1778066362 | 2.78° C | 72% | 1014.2 hPa | 0 mm | - | - | - |
| 1778064558 | 3.33° C | 71% | 1014.2 hPa | 0 mm | - | - | - |
| 1778062156 | 3.89° C | 71% | 1013.9 hPa | 0 mm | - | - | - |
| 1778061632 | 3.89° C | 71% | 1014.2 hPa | 0 mm | - | - | - |
| 1778061555 | 3.89° C | 71% | 1014.2 hPa | 0 mm | - | - | - |
| 1778057948 | 5° C | 71% | 1013.9 hPa | 0 mm | - | - | - |
| 1778051938 | 5.56° C | 69% | 1014.2 hPa | 0 mm | - | - | - |
| 1778051337 | 6.11° C | 69% | 1014.2 hPa | 0 mm | - | - | - |
| 1778050736 | 6.11° C | 69% | 1013.9 hPa | 0 mm | - | - | - |
| 1778050135 | 6.11° C | 69% | 1013.9 hPa | 0 mm | - | - | - |
| 1778047731 | 6.11° C | 68% | 1013.5 hPa | 0 mm | - | - | - |
| 1778047130 | 6.11° C | 68% | 1013.2 hPa | 0 mm | - | - | - |
| 1778045327 | 6.11° C | 67% | 1012.9 hPa | 0 mm | - | - | - |
| 1778043524 | 6.67° C | 65% | 1013.9 hPa | 0 mm | - | - | - |
| 1778042923 | 7.22° C | 64% | 1014.2 hPa | 0 mm | - | - | - |
| 1778042322 | 7.78° C | 65% | 1014.2 hPa | 0 mm | - | - | - |
| 1778041120 | 7.78° C | 65% | 1014.9 hPa | 0 mm | - | - | - |
| 1778039917 | 8.33° C | 65% | 1014.9 hPa | 0 mm | - | - | - |
| 1778039316 | 8.33° C | 64% | 1015.2 hPa | 0 mm | - | - | - |
* Rain latest hour (hover to see other rain measurements)
** Current wind speed in m/s (hover to see current wind gust speed)